createdAt,value
2023-05-09T00:01:25.217Z,100765.06
2023-05-09T00:03:52.316Z,100743.59
2023-05-09T00:06:19.782Z,100722.41
2023-05-09T00:08:46.749Z,100655.56
2023-05-09T00:11:13.931Z,100693.75
2023-05-09T00:13:41.979Z,100737.69
2023-05-09T00:16:09.296Z,100655.69
2023-05-09T00:18:37.511Z,100526.81
2023-05-09T00:21:04.879Z,100748.53
2023-05-09T00:23:31.687Z,100703.59
2023-05-09T00:25:59.601Z,100740.69
2023-05-09T00:28:27.232Z,100747.56
2023-05-09T00:30:54.115Z,100715.44
2023-05-09T00:33:21.001Z,100687.41
2023-05-09T00:35:47.946Z,100602.72
2023-05-09T00:38:14.833Z,100675.47
2023-05-09T00:40:41.700Z,100616.88
2023-05-09T00:43:08.645Z,100658.06
2023-05-09T00:45:35.648Z,100600.81
2023-05-09T00:48:03.404Z,100599.91
2023-05-09T00:50:31.214Z,100691.41
2023-05-09T00:52:58.862Z,100702.94
2023-05-09T00:55:27.267Z,100691.53
2023-05-09T00:57:54.107Z,100737.66
2023-05-09T01:00:21.166Z,100805.22
2023-05-09T01:02:56.301Z,100532.16
2023-05-09T01:05:29.232Z,100687.91
2023-05-09T01:08:17.387Z,100649.41
2023-05-09T01:10:58.361Z,100748.41
2023-05-09T01:13:39.797Z,100736.34
2023-05-09T01:16:17.827Z,100716.25
2023-05-09T01:19:23.124Z,100745.63
2023-05-09T01:21:51.445Z,100667.91
2023-05-09T01:24:56.374Z,100748.19
2023-05-09T01:27:45.240Z,100524.69
2023-05-09T01:30:13.949Z,100756.00
2023-05-09T01:32:43.355Z,100691.84
2023-05-09T01:35:14.768Z,100594.53
2023-05-09T01:37:44.613Z,100686.09
2023-05-09T01:40:14.964Z,100101.56
2023-05-09T01:42:49.786Z,100642.66
2023-05-09T01:45:19.203Z,100753.63
2023-05-09T01:47:48.994Z,100800.91
2023-05-09T01:50:18.047Z,100692.63
2023-05-09T01:52:48.622Z,100640.41
2023-05-09T01:55:19.736Z,100691.94
2023-05-09T01:57:47.626Z,100725.13
2023-05-09T02:00:15.165Z,100515.22
2023-05-09T02:02:44.450Z,100751.59
2023-05-09T02:05:12.448Z,100644.22
2023-05-09T02:07:41.750Z,100629.59
2023-05-09T02:10:10.280Z,100755.81
2023-05-09T02:12:38.324Z,100760.13
2023-05-09T02:15:06.625Z,100735.66
2023-05-09T02:17:33.687Z,100633.19
2023-05-09T02:20:00.553Z,100575.41
2023-05-09T02:22:28.053Z,100751.78
2023-05-09T02:24:54.958Z,100718.00
2023-05-09T02:27:22.225Z,100632.53
2023-05-09T02:29:51.799Z,100818.94
2023-05-09T02:32:25.518Z,100551.22
2023-05-09T02:34:54.022Z,100720.56
2023-05-09T02:37:21.484Z,100688.28
2023-05-09T02:39:48.594Z,100640.31
2023-05-09T02:42:21.296Z,100696.81
2023-05-09T02:44:48.010Z,100490.16
2023-05-09T02:47:15.973Z,100676.47
2023-05-09T02:49:42.774Z,100728.34
2023-05-09T02:52:09.627Z,100754.44
2023-05-09T02:54:36.436Z,100745.88
2023-05-09T02:57:03.562Z,100695.94
2023-05-09T02:59:30.511Z,100705.28
2023-05-09T03:02:01.156Z,100769.69
2023-05-09T03:04:28.917Z,100751.59
2023-05-09T03:06:55.675Z,100545.75
2023-05-09T03:09:23.788Z,100751.53
2023-05-09T03:11:50.710Z,100664.63
2023-05-09T03:14:17.588Z,100597.44
2023-05-09T03:16:44.377Z,100664.59
2023-05-09T03:19:20.533Z,100793.56
2023-05-09T03:21:47.287Z,100506.75
2023-05-09T03:24:14.213Z,100757.22
2023-05-09T03:26:41.004Z,100644.44
2023-05-09T03:29:07.893Z,100764.72
2023-05-09T03:31:34.867Z,99998.63
2023-05-09T03:34:01.718Z,100632.47
2023-05-09T03:36:28.859Z,100777.53
2023-05-09T03:38:56.159Z,100546.88
2023-05-09T03:41:23.433Z,100733.19
2023-05-09T03:43:50.283Z,100623.44
2023-05-09T03:46:17.106Z,100776.47
2023-05-09T03:48:46.264Z,100729.53
2023-05-09T03:51:13.793Z,100768.31
2023-05-09T03:53:41.990Z,100516.63
2023-05-09T03:56:09.522Z,100737.50
2023-05-09T03:58:44.234Z,100655.09
2023-05-09T04:01:12.797Z,100723.16
2023-05-09T04:03:40.489Z,100781.91
2023-05-09T04:06:07.898Z,100769.47
2023-05-09T04:08:37.978Z,100776.25
2023-05-09T04:11:06.104Z,100665.19
2023-05-09T04:13:33.980Z,100606.41
2023-05-09T04:16:05.411Z,100716.72
2023-05-09T04:18:33.735Z,100771.19
2023-05-09T04:21:00.528Z,100616.81
2023-05-09T04:23:27.461Z,100654.88
2023-05-09T04:25:57.660Z,100772.59
2023-05-09T04:28:25.075Z,100704.91
2023-05-09T04:30:52.253Z,100636.66
2023-05-09T04:33:20.144Z,100576.56
2023-05-09T04:35:48.698Z,100727.06
2023-05-09T04:38:16.696Z,100697.13
2023-05-09T04:40:43.686Z,100788.97
2023-05-09T04:43:10.657Z,100783.91
2023-05-09T04:45:37.372Z,100786.63
2023-05-09T04:48:04.682Z,100783.31
2023-05-09T04:50:31.625Z,100769.53
2023-05-09T04:52:58.304Z,100693.53
2023-05-09T04:55:25.194Z,100781.75
2023-05-09T04:57:53.057Z,100786.59
2023-05-09T05:00:20.098Z,100664.47
2023-05-09T05:02:48.450Z,100777.94
2023-05-09T05:05:15.436Z,100681.75
2023-05-09T05:07:43.501Z,100790.25
2023-05-09T05:10:13.725Z,100687.31
2023-05-09T05:12:43.982Z,100784.44
2023-05-09T05:15:13.794Z,100555.00
2023-05-09T05:17:43.404Z,100776.06
2023-05-09T05:20:10.831Z,100762.03
2023-05-09T05:22:42.245Z,100781.09
2023-05-09T05:25:09.420Z,100600.91
2023-05-09T05:27:37.555Z,100775.09
2023-05-09T05:30:05.213Z,100770.28
2023-05-09T05:32:32.229Z,100731.38
2023-05-09T05:34:59.395Z,100679.25
2023-05-09T05:37:26.452Z,100683.66
2023-05-09T05:39:53.324Z,100661.09
2023-05-09T05:42:20.196Z,100567.66
2023-05-09T05:44:46.997Z,100766.88
2023-05-09T05:47:13.769Z,100759.16
2023-05-09T05:49:41.669Z,100768.94
2023-05-09T05:52:09.324Z,100760.69
2023-05-09T05:54:36.881Z,100736.72
2023-05-09T05:57:03.744Z,100719.34
2023-05-09T05:59:30.820Z,100765.69
2023-05-09T06:01:57.727Z,100705.28
2023-05-09T06:04:24.977Z,100752.06
2023-05-09T06:06:51.871Z,100663.53
2023-05-09T06:09:18.694Z,100735.13
2023-05-09T06:11:45.754Z,100755.34
2023-05-09T06:14:12.645Z,100710.03
2023-05-09T06:17:00.170Z,100760.72
2023-05-09T06:19:29.907Z,100760.94
2023-05-09T06:21:56.717Z,100754.19
2023-05-09T06:24:35.096Z,100758.81
2023-05-09T06:27:04.409Z,100774.25
2023-05-09T06:29:31.198Z,100761.91
2023-05-09T06:31:59.641Z,100760.69
2023-05-09T06:34:26.644Z,100768.47
2023-05-09T06:36:53.406Z,100774.97
2023-05-09T06:39:20.383Z,100753.63
2023-05-09T06:41:47.323Z,100719.88
2023-05-09T06:44:23.124Z,100706.41
2023-05-09T06:46:49.886Z,100751.75
2023-05-09T06:49:16.588Z,100749.97
2023-05-09T06:51:43.272Z,100746.09
2023-05-09T06:54:10.074Z,100779.00
2023-05-09T06:56:36.874Z,100609.81
2023-05-09T06:59:03.603Z,100748.91
2023-05-09T07:01:30.881Z,100682.78
2023-05-09T07:03:59.178Z,100725.34
2023-05-09T07:06:26.039Z,100740.13
2023-05-09T07:08:53.232Z,100715.38
2023-05-09T07:11:21.154Z,100661.69
2023-05-09T07:13:48.149Z,100739.69
2023-05-09T07:16:15.352Z,100723.25
2023-05-09T07:18:42.082Z,100691.00
2023-05-09T07:21:08.797Z,100689.56
2023-05-09T07:23:35.632Z,100712.78
2023-05-09T07:26:02.476Z,100723.41
2023-05-09T07:28:29.245Z,100599.69
2023-05-09T07:30:56.697Z,100675.03
2023-05-09T07:33:23.603Z,100667.78
2023-05-09T07:35:50.630Z,100689.75
2023-05-09T07:38:17.390Z,100707.50
2023-05-09T07:40:44.439Z,100606.81
2023-05-09T07:43:11.298Z,100521.56
2023-05-09T07:45:38.042Z,100663.78
2023-05-09T07:48:05.145Z,100702.59
2023-05-09T07:50:31.968Z,100686.69
2023-05-09T07:52:59.606Z,100702.19
2023-05-09T07:55:26.277Z,100633.59
2023-05-09T07:57:53.007Z,100633.28
2023-05-09T08:00:23.978Z,100658.97
2023-05-09T08:02:52.404Z,100622.72
2023-05-09T08:05:19.757Z,100612.72
2023-05-09T08:07:46.606Z,100686.81
2023-05-09T08:10:13.467Z,100673.09
2023-05-09T08:12:41.594Z,100691.94
2023-05-09T08:15:08.910Z,100690.63
2023-05-09T08:17:35.705Z,100684.66
2023-05-09T08:20:02.511Z,100697.13
2023-05-09T08:22:29.311Z,100683.50
2023-05-09T08:24:56.073Z,100625.53
2023-05-09T08:27:22.822Z,100676.09
2023-05-09T08:29:49.574Z,100641.94
2023-05-09T08:32:16.344Z,100667.00
2023-05-09T08:34:43.173Z,100612.34
2023-05-09T08:37:09.916Z,100588.63
2023-05-09T08:39:36.782Z,100660.66
2023-05-09T08:42:03.838Z,100655.78
2023-05-09T08:44:31.622Z,100648.91
2023-05-09T08:47:03.589Z,100382.38
2023-05-09T08:49:30.564Z,100651.63
2023-05-09T08:51:57.747Z,100651.19
2023-05-09T08:54:25.007Z,100632.28
2023-05-09T08:56:52.462Z,100606.91
2023-05-09T08:59:19.738Z,100646.88
2023-05-09T09:01:47.564Z,100631.63
2023-05-09T09:04:14.889Z,100630.59
2023-05-09T09:06:41.893Z,100612.44
2023-05-09T09:09:09.208Z,100624.94
2023-05-09T09:11:37.472Z,100580.31
2023-05-09T09:14:13.345Z,100530.63
2023-05-09T09:16:42.840Z,100653.59
2023-05-09T09:19:17.315Z,100584.75
2023-05-09T09:21:46.983Z,100600.34
2023-05-09T09:24:14.392Z,100613.63
2023-05-09T09:26:48.623Z,100611.97
2023-05-09T09:29:15.841Z,100611.84
2023-05-09T09:31:47.349Z,100607.75
2023-05-09T09:34:20.764Z,100609.22
2023-05-09T09:36:48.571Z,100625.72
2023-05-09T09:39:15.847Z,100615.09
2023-05-09T09:41:44.640Z,100585.31
2023-05-09T09:44:16.862Z,100576.59
2023-05-09T09:46:55.700Z,100562.09
2023-05-09T09:49:24.903Z,100500.00
2023-05-09T09:51:53.422Z,100468.78
2023-05-09T09:54:20.417Z,100523.34
2023-05-09T09:56:48.941Z,100588.50
2023-05-09T09:59:22.587Z,100566.91
2023-05-09T10:01:58.377Z,100561.31
2023-05-09T10:04:27.532Z,100448.81
2023-05-09T10:07:06.041Z,100412.38
2023-05-09T10:09:35.157Z,100583.09
2023-05-09T10:12:04.231Z,100576.84
2023-05-09T10:14:34.942Z,100560.94
2023-05-09T10:17:04.201Z,100431.59
2023-05-09T10:19:32.139Z,100583.25
2023-05-09T10:22:06.207Z,100581.72
2023-05-09T10:25:05.640Z,100552.31
2023-05-09T10:27:36.058Z,100563.81
2023-05-09T10:30:07.290Z,100564.66
2023-05-09T10:32:52.075Z,100558.63
2023-05-09T10:35:22.984Z,100564.25
2023-05-09T10:37:50.113Z,100556.69
2023-05-09T10:40:20.074Z,100560.13
2023-05-09T10:42:47.082Z,100551.16
2023-05-09T10:45:14.457Z,100488.13
2023-05-09T10:47:43.294Z,100565.34
2023-05-09T10:50:13.320Z,100542.03
2023-05-09T10:53:08.464Z,100542.22
2023-05-09T10:55:50.273Z,100535.44
2023-05-09T10:58:21.379Z,100537.38
2023-05-09T11:00:54.206Z,100534.78
2023-05-09T11:03:23.641Z,100457.03
2023-05-09T11:05:58.302Z,100525.66
2023-05-09T11:08:29.263Z,100520.69
2023-05-09T11:10:57.800Z,100494.09
2023-05-09T11:13:25.765Z,100523.97
2023-05-09T11:16:05.027Z,100451.50
2023-05-09T11:18:32.987Z,100485.25
2023-05-09T11:21:07.054Z,100511.09
2023-05-09T11:23:34.262Z,100492.56
2023-05-09T11:26:06.572Z,100486.75
2023-05-09T11:28:36.734Z,100499.50
2023-05-09T11:31:11.265Z,100495.31
2023-05-09T11:33:39.656Z,100483.19
2023-05-09T11:36:19.565Z,100485.19
2023-05-09T11:38:47.838Z,100481.50
2023-05-09T11:41:15.718Z,100484.25
2023-05-09T11:43:44.657Z,100422.03
2023-05-09T11:46:12.971Z,100423.25
2023-05-09T11:48:42.321Z,100412.03
2023-05-09T11:51:18.356Z,100452.34
2023-05-09T11:53:49.760Z,100468.59
2023-05-09T11:56:17.428Z,100467.00
2023-05-09T11:58:44.429Z,100411.72
2023-05-09T12:01:12.679Z,100425.91
2023-05-09T12:03:45.014Z,100422.06
2023-05-09T12:06:17.550Z,100363.28
2023-05-09T12:08:45.858Z,100297.75
2023-05-09T12:11:13.886Z,100440.44
2023-05-09T12:13:50.431Z,100433.03
2023-05-09T12:16:19.124Z,100432.72
2023-05-09T12:18:50.651Z,100405.72
2023-05-09T12:21:18.773Z,100430.88
2023-05-09T12:23:51.306Z,100436.47
2023-05-09T12:26:22.704Z,100286.88
2023-05-09T12:28:50.611Z,100356.41
2023-05-09T12:31:18.018Z,100330.53
2023-05-09T12:33:45.429Z,100383.97
2023-05-09T12:36:13.752Z,100379.47
2023-05-09T12:38:41.256Z,100333.38
2023-05-09T12:41:26.100Z,100384.75
2023-05-09T12:43:57.556Z,100381.28
2023-05-09T12:46:24.718Z,100308.44
2023-05-09T12:48:52.018Z,100395.59
2023-05-09T12:51:20.867Z,100389.66
2023-05-09T12:53:48.639Z,100378.47
2023-05-09T12:56:17.616Z,100378.66
2023-05-09T12:58:55.132Z,100375.06
2023-05-09T13:01:27.413Z,100378.53
2023-05-09T13:04:03.835Z,100381.06
2023-05-09T13:06:31.312Z,100289.56
2023-05-09T13:09:01.248Z,100347.06
2023-05-09T13:11:29.281Z,100342.09
2023-05-09T13:13:56.253Z,100286.59
2023-05-09T13:16:23.502Z,100147.34
2023-05-09T13:18:50.460Z,100340.00
2023-05-09T13:21:17.592Z,100345.63
2023-05-09T13:23:45.598Z,100361.25
2023-05-09T13:26:12.719Z,100224.53
2023-05-09T13:28:39.606Z,100330.88
2023-05-09T13:31:09.363Z,100325.75
2023-05-09T13:33:36.237Z,100248.88
2023-05-09T13:36:03.860Z,100334.75
2023-05-09T13:38:32.295Z,100290.66
2023-05-09T13:41:00.261Z,100284.06
2023-05-09T13:43:27.608Z,100177.13
2023-05-09T13:45:54.506Z,100314.25
2023-05-09T13:48:21.845Z,100316.13
2023-05-09T13:50:50.647Z,100254.88
2023-05-09T13:53:17.608Z,100287.13
2023-05-09T13:55:45.643Z,100269.59
2023-05-09T13:58:12.787Z,100284.53
2023-05-09T14:00:40.189Z,100326.25
2023-05-09T14:03:07.076Z,100191.97
2023-05-09T14:05:34.758Z,100311.41
2023-05-09T14:08:01.931Z,100299.81
2023-05-09T14:10:29.172Z,100310.47
2023-05-09T14:12:57.089Z,100274.38
2023-05-09T14:15:24.117Z,100250.97
2023-05-09T14:17:51.043Z,100281.22
2023-05-09T14:20:18.450Z,100198.78
2023-05-09T14:22:45.488Z,100274.41
2023-05-09T14:25:12.861Z,100287.13
2023-05-09T14:27:39.669Z,100283.06
2023-05-09T14:30:07.393Z,100205.13
2023-05-09T14:32:34.286Z,100229.56
2023-05-09T14:35:01.293Z,100288.13
2023-05-09T14:37:29.557Z,100303.19
2023-05-09T14:39:56.487Z,100295.06
2023-05-09T14:42:23.778Z,100275.91
2023-05-09T14:44:50.888Z,100289.59
2023-05-09T14:47:18.006Z,100281.66
2023-05-09T14:49:44.909Z,100273.53
2023-05-09T14:52:12.197Z,100287.38
2023-05-09T14:54:39.118Z,100223.72
2023-05-09T14:57:07.652Z,100282.34
2023-05-09T14:59:36.802Z,100284.31
2023-05-09T15:02:04.217Z,100158.19
2023-05-09T15:04:31.493Z,100285.69
2023-05-09T15:06:59.258Z,100283.06
2023-05-09T15:09:26.909Z,100255.44
2023-05-09T15:11:55.942Z,100211.75
2023-05-09T15:14:24.198Z,100277.38
2023-05-09T15:16:52.362Z,100270.41
2023-05-09T15:19:19.449Z,100261.00
2023-05-09T15:21:46.824Z,100273.38
2023-05-09T15:24:13.751Z,100238.53
2023-05-09T15:26:40.720Z,100262.38
2023-05-09T15:29:07.778Z,100261.06
2023-05-09T15:31:36.390Z,100228.25
2023-05-09T15:34:03.535Z,100189.56
2023-05-09T15:36:31.124Z,100237.88
2023-05-09T15:38:58.118Z,100205.34
2023-05-09T15:41:25.139Z,100228.22
2023-05-09T15:43:53.055Z,100189.88
2023-05-09T15:46:20.158Z,100268.97
2023-05-09T15:48:47.829Z,100259.50
2023-05-09T15:51:16.445Z,100242.38
2023-05-09T15:53:43.495Z,100244.78
2023-05-09T15:56:10.648Z,100248.22
2023-05-09T15:58:37.785Z,100234.09
2023-05-09T16:01:06.433Z,100195.34
2023-05-09T16:03:34.058Z,100210.88
2023-05-09T16:06:01.458Z,100231.50
2023-05-09T16:08:28.298Z,100232.22
2023-05-09T16:10:55.241Z,100147.09
2023-05-09T16:13:22.805Z,100228.44
2023-05-09T16:15:51.142Z,100119.19
2023-05-09T16:18:18.831Z,100166.69
2023-05-09T16:20:45.883Z,100176.38
2023-05-09T16:23:13.271Z,100139.06
2023-05-09T16:25:40.139Z,100222.03
2023-05-09T16:28:07.749Z,100166.34
2023-05-09T16:30:34.930Z,100138.84
2023-05-09T16:33:01.928Z,100157.38
2023-05-09T16:35:29.248Z,100102.47
2023-05-09T16:37:56.168Z,100207.03
2023-05-09T16:40:23.287Z,100225.28
2023-05-09T16:42:50.250Z,100206.44
2023-05-09T16:45:17.367Z,100238.22
2023-05-09T16:47:47.029Z,100121.56
2023-05-09T16:50:14.105Z,100188.41
2023-05-09T16:52:41.133Z,100180.78
2023-05-09T16:55:08.743Z,100198.47
2023-05-09T16:57:35.678Z,100204.28
2023-05-09T17:00:02.715Z,100105.34
2023-05-09T17:02:29.891Z,100192.84
2023-05-09T17:04:57.796Z,100205.63
2023-05-09T17:07:27.278Z,100143.47
2023-05-09T17:09:54.316Z,100208.84
2023-05-09T17:12:21.633Z,100213.72
2023-05-09T17:14:48.847Z,100103.06
2023-05-09T17:17:17.895Z,100156.41
2023-05-09T17:19:46.285Z,100226.06
2023-05-09T17:22:14.581Z,100210.09
2023-05-09T17:24:41.865Z,100201.47
2023-05-09T17:27:11.057Z,100212.88
2023-05-09T17:29:38.256Z,100209.97
2023-05-09T17:32:05.896Z,100209.53
2023-05-09T17:34:33.783Z,100154.72
2023-05-09T17:37:02.602Z,100181.50
2023-05-09T17:39:29.753Z,100248.19
2023-05-09T17:41:56.819Z,100212.94
2023-05-09T17:44:24.232Z,100172.88
2023-05-09T17:46:51.473Z,100149.31
2023-05-09T17:49:18.450Z,100231.47
2023-05-09T17:51:45.593Z,100165.88
2023-05-09T17:54:13.052Z,100221.78
2023-05-09T17:56:41.200Z,100226.56
2023-05-09T17:59:08.242Z,100173.00
2023-05-09T18:01:36.201Z,100203.25
2023-05-09T18:04:03.605Z,100000.66
2023-05-09T18:06:30.556Z,100233.75
2023-05-09T18:08:57.635Z,100169.81
2023-05-09T18:11:24.735Z,100228.53
2023-05-09T18:13:51.902Z,100174.28
2023-05-09T18:16:19.158Z,100243.09
2023-05-09T18:18:46.143Z,100208.16
2023-05-09T18:21:13.401Z,100173.94
2023-05-09T18:23:41.199Z,100247.03
2023-05-09T18:26:08.809Z,100231.66
2023-05-09T18:28:41.769Z,100252.88
2023-05-09T18:31:16.033Z,100211.50
2023-05-09T18:33:44.821Z,100248.50
2023-05-09T18:36:11.760Z,100124.94
2023-05-09T18:38:39.513Z,100243.34
2023-05-09T18:41:07.911Z,100210.97
2023-05-09T18:43:35.902Z,100241.38
2023-05-09T18:46:03.744Z,100241.78
2023-05-09T18:48:31.301Z,100233.53
2023-05-09T18:50:58.608Z,100135.09
2023-05-09T18:53:29.419Z,100180.50
2023-05-09T18:55:57.141Z,100145.41
2023-05-09T18:58:24.991Z,100236.97
2023-05-09T19:00:53.260Z,100238.94
2023-05-09T19:03:21.308Z,100240.25
2023-05-09T19:05:48.731Z,100259.97
2023-05-09T19:08:16.905Z,100249.16
2023-05-09T19:10:45.152Z,100255.13
2023-05-09T19:13:14.719Z,100256.53
2023-05-09T19:15:43.879Z,100253.69
2023-05-09T19:18:14.418Z,100256.47
2023-05-09T19:20:41.736Z,100181.50
2023-05-09T19:23:08.955Z,100234.84
2023-05-09T19:25:37.344Z,100245.91
2023-05-09T19:28:04.458Z,100072.94
2023-05-09T19:30:31.630Z,100262.06
2023-05-09T19:32:59.243Z,100262.97
2023-05-09T19:35:26.452Z,100235.75
2023-05-09T19:37:53.483Z,100261.97
2023-05-09T19:40:21.767Z,100280.28
2023-05-09T19:42:53.205Z,100217.91
2023-05-09T19:45:21.025Z,100276.13
2023-05-09T19:47:49.326Z,100291.16
2023-05-09T19:50:17.168Z,100277.75
2023-05-09T19:52:44.563Z,100169.53
2023-05-09T19:55:13.540Z,100215.94
2023-05-09T19:57:40.687Z,100201.09
2023-05-09T20:00:10.031Z,100188.38
2023-05-09T20:02:39.313Z,100273.41
2023-05-09T20:05:07.025Z,100270.22
2023-05-09T20:07:33.917Z,100274.06
2023-05-09T20:10:18.421Z,100270.16
2023-05-09T20:12:53.866Z,100195.59
2023-05-09T20:15:20.819Z,100277.47
2023-05-09T20:17:48.427Z,100282.22
2023-05-09T20:20:16.118Z,100196.88
2023-05-09T20:22:43.420Z,100214.56
2023-05-09T20:25:10.545Z,100285.75
2023-05-09T20:27:37.811Z,100269.31
2023-05-09T20:30:05.349Z,100273.94
2023-05-09T20:32:32.554Z,100071.06
2023-05-09T20:34:59.629Z,100282.75
2023-05-09T20:37:26.599Z,100283.97
2023-05-09T20:39:53.431Z,100260.25
2023-05-09T20:42:20.395Z,100291.47
2023-05-09T20:44:57.098Z,100281.41
2023-05-09T20:47:24.655Z,100284.00
2023-05-09T20:49:51.499Z,100289.88
2023-05-09T20:52:18.471Z,100291.56
2023-05-09T20:54:47.153Z,100192.50
2023-05-09T20:57:13.974Z,100282.06
2023-05-09T20:59:41.037Z,100257.56
2023-05-09T21:02:08.448Z,100136.16
2023-05-09T21:04:35.475Z,100212.63
2023-05-09T21:07:02.319Z,100286.59
2023-05-09T21:09:29.394Z,100258.75
2023-05-09T21:11:56.126Z,100275.34
2023-05-09T21:14:23.266Z,100292.69
2023-05-09T21:16:51.710Z,100290.25
2023-05-09T21:19:18.483Z,100280.88
2023-05-09T21:21:45.246Z,100259.25
2023-05-09T21:24:12.276Z,100287.06
2023-05-09T21:26:39.019Z,100227.47
2023-05-09T21:29:06.712Z,100140.56
2023-05-09T21:31:34.342Z,100281.63
2023-05-09T21:34:01.299Z,100288.59
2023-05-09T21:36:28.249Z,100248.06
2023-05-09T21:38:55.351Z,100289.59
2023-05-09T21:41:22.034Z,100285.47
2023-05-09T21:43:48.811Z,100305.75
2023-05-09T21:46:16.127Z,100296.00
2023-05-09T21:48:43.204Z,100298.88
2023-05-09T21:51:09.920Z,100298.81
2023-05-09T21:53:36.842Z,100296.44
2023-05-09T21:56:03.809Z,100293.06
2023-05-09T21:58:30.540Z,100260.25
2023-05-09T22:00:57.426Z,100301.47
2023-05-09T22:03:24.486Z,100167.59
2023-05-09T22:05:51.257Z,100285.47
2023-05-09T22:08:18.337Z,100294.34
2023-05-09T22:10:45.034Z,100232.91
2023-05-09T22:13:11.820Z,100233.81
2023-05-09T22:15:38.699Z,100269.31
2023-05-09T22:18:05.552Z,100287.88
2023-05-09T22:20:32.284Z,100262.16
2023-05-09T22:22:59.071Z,100295.22
2023-05-09T22:25:25.869Z,100296.06
2023-05-09T22:27:53.491Z,100291.03
2023-05-09T22:30:20.349Z,100317.75
2023-05-09T22:32:47.052Z,100277.66
2023-05-09T22:35:13.755Z,100173.72
2023-05-09T22:37:40.506Z,100288.13
2023-05-09T22:40:07.834Z,100271.66
2023-05-09T22:42:34.839Z,100283.47
2023-05-09T22:45:02.167Z,100283.47
2023-05-09T22:47:28.972Z,100286.91
2023-05-09T22:49:55.920Z,100235.00
2023-05-09T22:52:22.710Z,100233.78
2023-05-09T22:54:49.512Z,100273.22
2023-05-09T22:57:18.015Z,100274.13
2023-05-09T22:59:45.367Z,100248.28
2023-05-09T23:02:12.805Z,100287.28
2023-05-09T23:04:39.462Z,100226.81
2023-05-09T23:07:06.344Z,100277.81
2023-05-09T23:09:33.224Z,100258.19
2023-05-09T23:12:01.166Z,100165.03
2023-05-09T23:14:28.321Z,100249.28
2023-05-09T23:16:56.100Z,100277.28
2023-05-09T23:19:23.134Z,100219.44
2023-05-09T23:21:50.569Z,100196.13
2023-05-09T23:24:17.560Z,100281.84
2023-05-09T23:26:44.681Z,100278.50
2023-05-09T23:29:11.779Z,100232.03
2023-05-09T23:31:39.155Z,100226.69
2023-05-09T23:34:05.826Z,100249.88
2023-05-09T23:36:32.903Z,100242.09
2023-05-09T23:38:59.636Z,100194.47
2023-05-09T23:41:26.492Z,100263.16
2023-05-09T23:43:53.287Z,100246.19
2023-05-09T23:46:19.974Z,100242.56
2023-05-09T23:48:46.743Z,100275.22
2023-05-09T23:51:13.524Z,100236.84
2023-05-09T23:53:40.182Z,100277.03
2023-05-09T23:56:07.326Z,100222.94
2023-05-09T23:58:34.169Z,100168.88
